Fort White, FL (32038)

12:57 PM EDT on March 31, 2015 (GMT -0400)
Spring Ridge | | Change Station
CLOSE
Current Station
Personal Weather Station
Location: High Springs, FL
Elevation: 57 ft
Nearby Weather Stations

Elev 57 ft 29.82 °N, 82.72 °W | Updated 11 minutes ago

Overcast
Overcast
76.1 °F
Feels Like 77 °F
N
0.0
Wind Variable Wind from WSW

Today
High -- | Low -- °F
--% Chance of Precip.
Yesterday
High -- | Low -- °F
Precip. -- in
7:21 AM 7:48 PM
Waxing Gibbous, 87% visible
Pressure 30.14 in
Visibility 10.0 miles
Clouds Overcast 1400 ft
Heat Index 77 °F
Dew Point 38 °F
Humidity 25%
Rainfall 0.00 in
Snow Depth Not available.
UV 4 out of 12
Pollen 9.90 out of 12
Air Quality Not available.
Flu Activity Not available.
METAR KLCQ 311635Z AUTO 24005KT 10SM OVC014 22/18 A3014 RMK AO2

More Conditions Fewer Conditions

Pressure 30.14 in
Visibility 10.0 miles
Clouds Overcast 1400 ft
Heat Index 77 °F
Dew Point 38 °F
Humidity 25%
Rainfall 0.00 in
Snow Depth Not available.
UV 4 out of 12
Pollen 9.90 out of 12
Air Quality Not available.
Flu Activity Not available.
METAR KLCQ 311635Z AUTO 24005KT 10SM OVC014 22/18 A3014 RMK AO2

More Conditions Fewer Conditions

10-Day Weather Forecast

Almanac

Astronomy

Mar. 31, 2015 Rise Set
Actual Time
Civil Twilight
Nautical Twilight
Astronomical Twilight
Moon
Length of Visible Light
Length of Day
Tomorrow will be .
, % of the Moon is Illuminated

Today's Extremes

State Highs State Lows

Community

WunderPhotos

Upload Photos

1,809,787 photos uploaded!

WunderBlogs® & News

Nearby

Air Quality

  Air Quality AQ Index Pollutant
Not available.

Snow Depth

Station Depth Elevation

Earthquake Activity

City Distance Mag. Time & Date
Minimum magnitude displayed is 2.5.

Coastal Water Temperatures

Place Temperature

Stations

Nearby Weather Stations

Station Location Temp. Windchill Dew Point Humidity Wind Precip. Elev Updated Type